sensor_id;sensor_type;location;lat;lon;timestamp;P1;durP1;ratioP1;P2;durP2;ratioP2
36001;SDS011;22070;50.922;5.430;2022-12-16T00:01:36;72.82;;;30.20;;
36001;SDS011;22070;50.922;5.430;2022-12-16T00:04:02;81.67;;;31.20;;
36001;SDS011;22070;50.922;5.430;2022-12-16T00:06:29;76.93;;;30.30;;
36001;SDS011;22070;50.922;5.430;2022-12-16T00:08:57;83.22;;;31.88;;
36001;SDS011;22070;50.922;5.430;2022-12-16T00:13:49;76.60;;;29.37;;
36001;SDS011;22070;50.922;5.430;2022-12-16T00:16:16;82.53;;;30.20;;
36001;SDS011;22070;50.922;5.430;2022-12-16T00:18:43;75.75;;;31.23;;
36001;SDS011;22070;50.922;5.430;2022-12-16T00:21:09;85.50;;;32.58;;
36001;SDS011;22070;50.922;5.430;2022-12-16T00:23:36;80.70;;;30.92;;
36001;SDS011;22070;50.922;5.430;2022-12-16T00:26:03;86.85;;;32.60;;
36001;SDS011;22070;50.922;5.430;2022-12-16T00:28:29;82.55;;;31.38;;
36001;SDS011;22070;50.922;5.430;2022-12-16T00:30:55;93.97;;;33.20;;
36001;SDS011;22070;50.922;5.430;2022-12-16T00:33:22;95.57;;;34.78;;
36001;SDS011;22070;50.922;5.430;2022-12-16T00:35:50;83.80;;;32.63;;
36001;SDS011;22070;50.922;5.430;2022-12-16T00:38:16;84.20;;;33.72;;
36001;SDS011;22070;50.922;5.430;2022-12-16T00:40:42;86.77;;;32.17;;
36001;SDS011;22070;50.922;5.430;2022-12-16T00:43:08;85.50;;;32.20;;
36001;SDS011;22070;50.922;5.430;2022-12-16T00:45:35;86.10;;;32.28;;
36001;SDS011;22070;50.922;5.430;2022-12-16T00:48:01;82.20;;;32.95;;
36001;SDS011;22070;50.922;5.430;2022-12-16T00:50:27;84.63;;;31.70;;
36001;SDS011;22070;50.922;5.430;2022-12-16T00:52:53;84.37;;;32.30;;
36001;SDS011;22070;50.922;5.430;2022-12-16T00:55:19;83.73;;;30.67;;
36001;SDS011;22070;50.922;5.430;2022-12-16T00:57:45;75.40;;;30.33;;
36001;SDS011;22070;50.922;5.430;2022-12-16T01:00:12;82.53;;;31.63;;
36001;SDS011;22070;50.922;5.430;2022-12-16T01:02:39;79.55;;;30.90;;
36001;SDS011;22070;50.922;5.430;2022-12-16T01:05:09;75.28;;;30.33;;
36001;SDS011;22070;50.922;5.430;2022-12-16T01:07:36;72.43;;;30.65;;
36001;SDS011;22070;50.922;5.430;2022-12-16T01:10:03;83.53;;;31.47;;
36001;SDS011;22070;50.922;5.430;2022-12-16T01:12:30;77.63;;;32.05;;
36001;SDS011;22070;50.922;5.430;2022-12-16T01:14:56;78.05;;;32.70;;
36001;SDS011;22070;50.922;5.430;2022-12-16T01:17:23;77.78;;;30.75;;
36001;SDS011;22070;50.922;5.430;2022-12-16T01:19:50;80.95;;;30.75;;
36001;SDS011;22070;50.922;5.430;2022-12-16T01:22:17;73.70;;;31.13;;
36001;SDS011;22070;50.922;5.430;2022-12-16T01:24:43;77.80;;;30.27;;
36001;SDS011;22070;50.922;5.430;2022-12-16T01:27:09;75.83;;;30.53;;
36001;SDS011;22070;50.922;5.430;2022-12-16T01:29:36;82.40;;;33.33;;
36001;SDS011;22070;50.922;5.430;2022-12-16T01:32:02;91.37;;;32.77;;
36001;SDS011;22070;50.922;5.430;2022-12-16T01:34:28;77.40;;;30.75;;
36001;SDS011;22070;50.922;5.430;2022-12-16T01:36:53;61.63;;;23.90;;
36001;SDS011;22070;50.922;5.430;2022-12-16T01:39:19;77.40;;;31.17;;
36001;SDS011;22070;50.922;5.430;2022-12-16T01:41:45;79.40;;;30.87;;
36001;SDS011;22070;50.922;5.430;2022-12-16T01:44:15;73.27;;;30.03;;
36001;SDS011;22070;50.922;5.430;2022-12-16T01:46:41;76.22;;;29.30;;
36001;SDS011;22070;50.922;5.430;2022-12-16T01:49:10;68.72;;;29.27;;
36001;SDS011;22070;50.922;5.430;2022-12-16T01:51:46;78.72;;;30.25;;
36001;SDS011;22070;50.922;5.430;2022-12-16T01:54:14;78.50;;;30.23;;
36001;SDS011;22070;50.922;5.430;2022-12-16T01:56:42;67.15;;;28.08;;
36001;SDS011;22070;50.922;5.430;2022-12-16T01:59:13;68.93;;;28.02;;
36001;SDS011;22070;50.922;5.430;2022-12-16T02:01:40;66.93;;;28.25;;
36001;SDS011;22070;50.922;5.430;2022-12-16T02:04:06;64.13;;;27.83;;
36001;SDS011;22070;50.922;5.430;2022-12-16T02:06:32;80.23;;;29.27;;
36001;SDS011;22070;50.922;5.430;2022-12-16T02:08:58;73.40;;;28.60;;
36001;SDS011;22070;50.922;5.430;2022-12-16T02:15:09;71.80;;;28.40;;
36001;SDS011;22070;50.922;5.430;2022-12-16T02:32:09;66.22;;;26.17;;
36001;SDS011;22070;50.922;5.430;2022-12-16T02:34:51;68.88;;;26.70;;
36001;SDS011;22070;50.922;5.430;2022-12-16T02:37:43;64.75;;;25.35;;
36001;SDS011;22070;50.922;5.430;2022-12-16T02:43:11;63.17;;;26.75;;
36001;SDS011;22070;50.922;5.430;2022-12-16T02:45:43;64.40;;;25.77;;
36001;SDS011;22070;50.922;5.430;2022-12-16T02:48:09;66.45;;;25.88;;
36001;SDS011;22070;50.922;5.430;2022-12-16T02:50:39;60.90;;;25.77;;
36001;SDS011;22070;50.922;5.430;2022-12-16T02:53:09;66.32;;;24.58;;
36001;SDS011;22070;50.922;5.430;2022-12-16T03:01:06;59.42;;;24.70;;
36001;SDS011;22070;50.922;5.430;2022-12-16T03:06:46;63.90;;;25.77;;
36001;SDS011;22070;50.922;5.430;2022-12-16T03:09:14;61.65;;;23.92;;
36001;SDS011;22070;50.922;5.430;2022-12-16T03:11:43;61.85;;;23.73;;
36001;SDS011;22070;50.922;5.430;2022-12-16T03:14:11;56.70;;;23.95;;
36001;SDS011;22070;50.922;5.430;2022-12-16T03:16:39;59.88;;;23.90;;
36001;SDS011;22070;50.922;5.430;2022-12-16T03:19:07;63.28;;;24.40;;
36001;SDS011;22070;50.922;5.430;2022-12-16T03:21:42;57.35;;;24.50;;
36001;SDS011;22070;50.922;5.430;2022-12-16T03:24:14;64.32;;;25.27;;
36001;SDS011;22070;50.922;5.430;2022-12-16T03:29:40;54.38;;;23.80;;
36001;SDS011;22070;50.922;5.430;2022-12-16T03:35:11;65.63;;;24.83;;
36001;SDS011;22070;50.922;5.430;2022-12-16T03:37:51;60.22;;;24.58;;
36001;SDS011;22070;50.922;5.430;2022-12-16T03:40:19;62.45;;;24.92;;
36001;SDS011;22070;50.922;5.430;2022-12-16T03:42:46;60.42;;;24.73;;
36001;SDS011;22070;50.922;5.430;2022-12-16T03:45:14;55.03;;;24.73;;
36001;SDS011;22070;50.922;5.430;2022-12-16T03:47:48;63.17;;;23.83;;
36001;SDS011;22070;50.922;5.430;2022-12-16T03:50:15;63.42;;;24.45;;
36001;SDS011;22070;50.922;5.430;2022-12-16T03:52:43;58.42;;;24.17;;
36001;SDS011;22070;50.922;5.430;2022-12-16T03:55:09;56.10;;;23.40;;
36001;SDS011;22070;50.922;5.430;2022-12-16T03:57:35;58.50;;;23.70;;
36001;SDS011;22070;50.922;5.430;2022-12-16T04:00:00;59.57;;;24.43;;
36001;SDS011;22070;50.922;5.430;2022-12-16T04:02:26;64.13;;;23.23;;
36001;SDS011;22070;50.922;5.430;2022-12-16T04:04:52;62.50;;;23.70;;
36001;SDS011;22070;50.922;5.430;2022-12-16T04:07:17;58.57;;;23.67;;
36001;SDS011;22070;50.922;5.430;2022-12-16T04:09:49;63.88;;;25.27;;
36001;SDS011;22070;50.922;5.430;2022-12-16T04:12:16;57.40;;;23.27;;
36001;SDS011;22070;50.922;5.430;2022-12-16T04:15:01;49.78;;;23.10;;
36001;SDS011;22070;50.922;5.430;2022-12-16T04:17:45;59.03;;;24.73;;
36001;SDS011;22070;50.922;5.430;2022-12-16T04:20:41;57.92;;;23.80;;
36001;SDS011;22070;50.922;5.430;2022-12-16T04:23:28;56.50;;;23.20;;
36001;SDS011;22070;50.922;5.430;2022-12-16T04:26:14;49.08;;;22.63;;
36001;SDS011;22070;50.922;5.430;2022-12-16T04:28:40;55.65;;;23.27;;
36001;SDS011;22070;50.922;5.430;2022-12-16T04:31:06;56.00;;;23.70;;
36001;SDS011;22070;50.922;5.430;2022-12-16T04:33:32;61.20;;;24.57;;
36001;SDS011;22070;50.922;5.430;2022-12-16T04:36:16;57.83;;;24.40;;
36001;SDS011;22070;50.922;5.430;2022-12-16T04:39:00;59.80;;;23.15;;
36001;SDS011;22070;50.922;5.430;2022-12-16T04:41:44;56.90;;;24.08;;
36001;SDS011;22070;50.922;5.430;2022-12-16T04:44:28;55.85;;;24.30;;
36001;SDS011;22070;50.922;5.430;2022-12-16T04:47:12;62.47;;;25.10;;
36001;SDS011;22070;50.922;5.430;2022-12-16T04:49:56;63.17;;;24.73;;
36001;SDS011;22070;50.922;5.430;2022-12-16T04:52:40;61.00;;;24.40;;
36001;SDS011;22070;50.922;5.430;2022-12-16T04:55:24;61.78;;;24.42;;
36001;SDS011;22070;50.922;5.430;2022-12-16T04:58:08;52.67;;;23.35;;
36001;SDS011;22070;50.922;5.430;2022-12-16T05:00:52;60.25;;;24.35;;
36001;SDS011;22070;50.922;5.430;2022-12-16T05:03:36;55.35;;;24.05;;
36001;SDS011;22070;50.922;5.430;2022-12-16T05:06:21;53.08;;;23.00;;
36001;SDS011;22070;50.922;5.430;2022-12-16T05:09:05;55.55;;;23.73;;
36001;SDS011;22070;50.922;5.430;2022-12-16T05:11:49;54.20;;;23.48;;
36001;SDS011;22070;50.922;5.430;2022-12-16T05:14:33;55.58;;;23.60;;
36001;SDS011;22070;50.922;5.430;2022-12-16T05:17:18;68.72;;;24.85;;
36001;SDS011;22070;50.922;5.430;2022-12-16T05:20:02;62.70;;;25.13;;
36001;SDS011;22070;50.922;5.430;2022-12-16T05:22:47;59.53;;;24.67;;
36001;SDS011;22070;50.922;5.430;2022-12-16T05:25:32;62.78;;;25.02;;
36001;SDS011;22070;50.922;5.430;2022-12-16T05:28:16;57.95;;;23.92;;
36001;SDS011;22070;50.922;5.430;2022-12-16T05:31:00;59.03;;;25.33;;
36001;SDS011;22070;50.922;5.430;2022-12-16T05:33:44;60.92;;;25.45;;
36001;SDS011;22070;50.922;5.430;2022-12-16T05:36:29;64.40;;;26.25;;
36001;SDS011;22070;50.922;5.430;2022-12-16T05:39:13;57.47;;;24.55;;
36001;SDS011;22070;50.922;5.430;2022-12-16T05:41:57;60.70;;;24.95;;
36001;SDS011;22070;50.922;5.430;2022-12-16T05:44:41;57.47;;;24.50;;
36001;SDS011;22070;50.922;5.430;2022-12-16T05:47:25;57.78;;;24.75;;
36001;SDS011;22070;50.922;5.430;2022-12-16T05:50:09;58.22;;;24.88;;
36001;SDS011;22070;50.922;5.430;2022-12-16T05:52:54;57.47;;;24.95;;
36001;SDS011;22070;50.922;5.430;2022-12-16T05:55:39;57.53;;;25.00;;
36001;SDS011;22070;50.922;5.430;2022-12-16T05:58:24;58.45;;;25.08;;
36001;SDS011;22070;50.922;5.430;2022-12-16T06:01:08;63.63;;;25.88;;
36001;SDS011;22070;50.922;5.430;2022-12-16T06:03:53;56.72;;;25.00;;
36001;SDS011;22070;50.922;5.430;2022-12-16T06:06:38;56.92;;;24.42;;
36001;SDS011;22070;50.922;5.430;2022-12-16T06:09:22;52.30;;;23.27;;
36001;SDS011;22070;50.922;5.430;2022-12-16T06:12:06;62.28;;;24.38;;
36001;SDS011;22070;50.922;5.430;2022-12-16T06:14:50;56.53;;;24.70;;
36001;SDS011;22070;50.922;5.430;2022-12-16T06:17:34;52.17;;;24.38;;
36001;SDS011;22070;50.922;5.430;2022-12-16T06:20:19;59.45;;;24.75;;
36001;SDS011;22070;50.922;5.430;2022-12-16T06:23:03;67.45;;;26.63;;
36001;SDS011;22070;50.922;5.430;2022-12-16T06:25:47;58.28;;;24.55;;
36001;SDS011;22070;50.922;5.430;2022-12-16T06:28:32;55.70;;;23.48;;
36001;SDS011;22070;50.922;5.430;2022-12-16T06:31:16;53.92;;;24.58;;
36001;SDS011;22070;50.922;5.430;2022-12-16T06:34:00;58.53;;;24.65;;
36001;SDS011;22070;50.922;5.430;2022-12-16T06:36:45;66.25;;;25.48;;
36001;SDS011;22070;50.922;5.430;2022-12-16T06:39:29;57.03;;;25.20;;
36001;SDS011;22070;50.922;5.430;2022-12-16T06:42:13;57.50;;;24.58;;
36001;SDS011;22070;50.922;5.430;2022-12-16T06:44:57;61.50;;;25.52;;
36001;SDS011;22070;50.922;5.430;2022-12-16T06:47:41;58.67;;;24.45;;
36001;SDS011;22070;50.922;5.430;2022-12-16T06:50:26;67.43;;;25.13;;
36001;SDS011;22070;50.922;5.430;2022-12-16T06:53:11;61.33;;;26.60;;
36001;SDS011;22070;50.922;5.430;2022-12-16T06:55:56;60.75;;;25.35;;
36001;SDS011;22070;50.922;5.430;2022-12-16T06:58:40;57.90;;;25.08;;
36001;SDS011;22070;50.922;5.430;2022-12-16T07:01:24;56.00;;;24.70;;
36001;SDS011;22070;50.922;5.430;2022-12-16T07:04:08;61.70;;;25.75;;
36001;SDS011;22070;50.922;5.430;2022-12-16T07:06:52;63.78;;;24.73;;
36001;SDS011;22070;50.922;5.430;2022-12-16T07:09:36;56.13;;;24.38;;
36001;SDS011;22070;50.922;5.430;2022-12-16T07:12:20;55.95;;;24.98;;
36001;SDS011;22070;50.922;5.430;2022-12-16T07:15:04;56.83;;;24.42;;
36001;SDS011;22070;50.922;5.430;2022-12-16T07:17:49;57.30;;;25.33;;
36001;SDS011;22070;50.922;5.430;2022-12-16T07:20:33;56.75;;;25.52;;
36001;SDS011;22070;50.922;5.430;2022-12-16T07:23:17;54.58;;;24.92;;
36001;SDS011;22070;50.922;5.430;2022-12-16T07:26:01;56.88;;;25.17;;
36001;SDS011;22070;50.922;5.430;2022-12-16T07:28:45;53.10;;;25.92;;
36001;SDS011;22070;50.922;5.430;2022-12-16T07:31:29;64.63;;;25.92;;
36001;SDS011;22070;50.922;5.430;2022-12-16T07:34:14;58.03;;;25.10;;
36001;SDS011;22070;50.922;5.430;2022-12-16T07:36:58;62.25;;;26.52;;
36001;SDS011;22070;50.922;5.430;2022-12-16T07:39:42;57.05;;;25.75;;
36001;SDS011;22070;50.922;5.430;2022-12-16T07:42:26;59.97;;;25.85;;
36001;SDS011;22070;50.922;5.430;2022-12-16T07:45:10;58.10;;;25.48;;
36001;SDS011;22070;50.922;5.430;2022-12-16T07:47:54;62.45;;;27.35;;
36001;SDS011;22070;50.922;5.430;2022-12-16T07:50:39;59.47;;;27.13;;
36001;SDS011;22070;50.922;5.430;2022-12-16T07:53:24;60.92;;;27.30;;
36001;SDS011;22070;50.922;5.430;2022-12-16T07:56:08;59.13;;;25.98;;
36001;SDS011;22070;50.922;5.430;2022-12-16T07:58:53;62.08;;;27.25;;
36001;SDS011;22070;50.922;5.430;2022-12-16T08:01:37;60.70;;;25.95;;
36001;SDS011;22070;50.922;5.430;2022-12-16T08:04:21;61.40;;;27.23;;
36001;SDS011;22070;50.922;5.430;2022-12-16T08:07:05;64.55;;;28.02;;
36001;SDS011;22070;50.922;5.430;2022-12-16T08:09:49;62.05;;;27.58;;
36001;SDS011;22070;50.922;5.430;2022-12-16T08:12:33;68.82;;;28.90;;
36001;SDS011;22070;50.922;5.430;2022-12-16T08:15:17;65.45;;;27.15;;
36001;SDS011;22070;50.922;5.430;2022-12-16T08:18:01;63.97;;;28.40;;
36001;SDS011;22070;50.922;5.430;2022-12-16T08:20:46;69.68;;;26.27;;
36001;SDS011;22070;50.922;5.430;2022-12-16T08:23:30;59.22;;;26.30;;
36001;SDS011;22070;50.922;5.430;2022-12-16T08:26:14;60.53;;;27.25;;
36001;SDS011;22070;50.922;5.430;2022-12-16T08:28:58;62.15;;;27.52;;
36001;SDS011;22070;50.922;5.430;2022-12-16T08:31:42;60.45;;;26.75;;
36001;SDS011;22070;50.922;5.430;2022-12-16T08:34:26;61.00;;;27.25;;
36001;SDS011;22070;50.922;5.430;2022-12-16T08:37:10;69.22;;;29.77;;
36001;SDS011;22070;50.922;5.430;2022-12-16T08:39:54;65.32;;;28.35;;
36001;SDS011;22070;50.922;5.430;2022-12-16T08:42:38;67.50;;;31.98;;
36001;SDS011;22070;50.922;5.430;2022-12-16T08:45:23;62.45;;;27.63;;
36001;SDS011;22070;50.922;5.430;2022-12-16T08:48:07;61.65;;;28.90;;
36001;SDS011;22070;50.922;5.430;2022-12-16T08:50:52;65.00;;;28.08;;
36001;SDS011;22070;50.922;5.430;2022-12-16T08:53:36;68.35;;;28.90;;
36001;SDS011;22070;50.922;5.430;2022-12-16T08:56:20;59.53;;;26.60;;
36001;SDS011;22070;50.922;5.430;2022-12-16T08:59:04;59.40;;;26.00;;
36001;SDS011;22070;50.922;5.430;2022-12-16T09:01:48;56.45;;;27.30;;
36001;SDS011;22070;50.922;5.430;2022-12-16T09:04:33;63.00;;;26.92;;
36001;SDS011;22070;50.922;5.430;2022-12-16T09:07:17;57.78;;;26.30;;
36001;SDS011;22070;50.922;5.430;2022-12-16T09:10:02;55.28;;;25.88;;
36001;SDS011;22070;50.922;5.430;2022-12-16T09:12:47;58.70;;;26.30;;
36001;SDS011;22070;50.922;5.430;2022-12-16T09:15:30;56.97;;;26.23;;
36001;SDS011;22070;50.922;5.430;2022-12-16T09:18:15;65.70;;;26.92;;
36001;SDS011;22070;50.922;5.430;2022-12-16T09:20:59;61.47;;;26.58;;
36001;SDS011;22070;50.922;5.430;2022-12-16T09:23:43;64.03;;;27.60;;
36001;SDS011;22070;50.922;5.430;2022-12-16T09:26:30;62.50;;;26.50;;
36001;SDS011;22070;50.922;5.430;2022-12-16T09:29:14;62.85;;;27.55;;
36001;SDS011;22070;50.922;5.430;2022-12-16T09:31:58;55.92;;;25.30;;
36001;SDS011;22070;50.922;5.430;2022-12-16T09:34:42;58.25;;;25.73;;
36001;SDS011;22070;50.922;5.430;2022-12-16T09:37:27;63.30;;;27.02;;
36001;SDS011;22070;50.922;5.430;2022-12-16T09:40:12;61.67;;;26.30;;
36001;SDS011;22070;50.922;5.430;2022-12-16T09:43:00;61.33;;;26.23;;
36001;SDS011;22070;50.922;5.430;2022-12-16T09:46:03;66.38;;;27.10;;
36001;SDS011;22070;50.922;5.430;2022-12-16T09:51:56;65.10;;;26.92;;
36001;SDS011;22070;50.922;5.430;2022-12-16T09:54:44;68.60;;;28.08;;
36001;SDS011;22070;50.922;5.430;2022-12-16T09:57:30;67.45;;;29.17;;
36001;SDS011;22070;50.922;5.430;2022-12-16T10:00:23;71.80;;;29.17;;
36001;SDS011;22070;50.922;5.430;2022-12-16T10:03:31;66.28;;;29.42;;
36001;SDS011;22070;50.922;5.430;2022-12-16T10:21:42;92.28;;;31.85;;
36001;SDS011;22070;50.922;5.430;2022-12-16T10:27:35;92.60;;;33.58;;
36001;SDS011;22070;50.922;5.430;2022-12-16T10:30:30;81.65;;;31.83;;
36001;SDS011;22070;50.922;5.430;2022-12-16T10:33:17;84.93;;;30.48;;
36001;SDS011;22070;50.922;5.430;2022-12-16T10:36:02;83.07;;;30.70;;
36001;SDS011;22070;50.922;5.430;2022-12-16T10:41:35;92.05;;;32.33;;
36001;SDS011;22070;50.922;5.430;2022-12-16T10:47:34;81.30;;;31.45;;
36001;SDS011;22070;50.922;5.430;2022-12-16T10:50:19;87.05;;;33.25;;
36001;SDS011;22070;50.922;5.430;2022-12-16T10:53:04;81.60;;;31.55;;
36001;SDS011;22070;50.922;5.430;2022-12-16T10:59:00;84.70;;;33.20;;
36001;SDS011;22070;50.922;5.430;2022-12-16T11:02:09;92.50;;;33.65;;
36001;SDS011;22070;50.922;5.430;2022-12-16T11:05:01;93.63;;;34.63;;
36001;SDS011;22070;50.922;5.430;2022-12-16T11:08:08;99.20;;;34.85;;
36001;SDS011;22070;50.922;5.430;2022-12-16T11:11:48;104.07;;;34.65;;
36001;SDS011;22070;50.922;5.430;2022-12-16T11:14:33;99.05;;;34.85;;
36001;SDS011;22070;50.922;5.430;2022-12-16T11:23:05;106.47;;;34.80;;
36001;SDS011;22070;50.922;5.430;2022-12-16T11:26:19;109.80;;;34.97;;
36001;SDS011;22070;50.922;5.430;2022-12-16T11:29:13;104.10;;;34.10;;
36001;SDS011;22070;50.922;5.430;2022-12-16T11:32:00;108.13;;;35.45;;
36001;SDS011;22070;50.922;5.430;2022-12-16T11:34:51;113.25;;;36.05;;
36001;SDS011;22070;50.922;5.430;2022-12-16T11:37:41;117.47;;;38.03;;
36001;SDS011;22070;50.922;5.430;2022-12-16T11:40:26;111.28;;;35.85;;
36001;SDS011;22070;50.922;5.430;2022-12-16T11:43:12;83.15;;;26.45;;
36001;SDS011;22070;50.922;5.430;2022-12-16T11:46:00;118.30;;;36.20;;
36001;SDS011;22070;50.922;5.430;2022-12-16T11:48:48;104.25;;;36.53;;
36001;SDS011;22070;50.922;5.430;2022-12-16T11:51:37;118.53;;;37.90;;
36001;SDS011;22070;50.922;5.430;2022-12-16T11:54:27;102.00;;;37.92;;
36001;SDS011;22070;50.922;5.430;2022-12-16T11:57:19;113.38;;;35.65;;
36001;SDS011;22070;50.922;5.430;2022-12-16T12:00:14;99.55;;;34.97;;
36001;SDS011;22070;50.922;5.430;2022-12-16T12:03:03;112.10;;;36.33;;
36001;SDS011;22070;50.922;5.430;2022-12-16T12:08:45;101.72;;;35.38;;
36001;SDS011;22070;50.922;5.430;2022-12-16T12:14:42;121.28;;;37.33;;
36001;SDS011;22070;50.922;5.430;2022-12-16T12:17:54;118.80;;;38.38;;
36001;SDS011;22070;50.922;5.430;2022-12-16T12:26:44;121.82;;;38.88;;
36001;SDS011;22070;50.922;5.430;2022-12-16T12:32:58;105.25;;;35.22;;
36001;SDS011;22070;50.922;5.430;2022-12-16T12:36:14;124.85;;;39.10;;
36001;SDS011;22070;50.922;5.430;2022-12-16T12:39:15;108.07;;;37.88;;
36001;SDS011;22070;50.922;5.430;2022-12-16T12:45:19;114.60;;;39.38;;
36001;SDS011;22070;50.922;5.430;2022-12-16T12:48:08;127.80;;;40.45;;
36001;SDS011;22070;50.922;5.430;2022-12-16T12:51:09;130.13;;;41.45;;
36001;SDS011;22070;50.922;5.430;2022-12-16T12:56:59;119.57;;;38.22;;
36001;SDS011;22070;50.922;5.430;2022-12-16T13:03:25;118.85;;;38.88;;
36001;SDS011;22070;50.922;5.430;2022-12-16T13:06:14;121.97;;;38.65;;
36001;SDS011;22070;50.922;5.430;2022-12-16T13:09:00;125.05;;;39.88;;
36001;SDS011;22070;50.922;5.430;2022-12-16T13:14:55;129.05;;;40.15;;
36001;SDS011;22070;50.922;5.430;2022-12-16T13:20:48;131.65;;;41.17;;
36001;SDS011;22070;50.922;5.430;2022-12-16T13:23:37;115.93;;;40.47;;
36001;SDS011;22070;50.922;5.430;2022-12-16T13:26:23;108.43;;;38.90;;
36001;SDS011;22070;50.922;5.430;2022-12-16T13:35:21;128.07;;;40.35;;
36001;SDS011;22070;50.922;5.430;2022-12-16T13:38:05;132.50;;;39.70;;
36001;SDS011;22070;50.922;5.430;2022-12-16T13:46:44;135.15;;;41.22;;
36001;SDS011;22070;50.922;5.430;2022-12-16T13:59:02;129.55;;;40.63;;
36001;SDS011;22070;50.922;5.430;2022-12-16T14:01:37;131.20;;;40.97;;
36001;SDS011;22070;50.922;5.430;2022-12-16T14:04:31;131.05;;;40.58;;
36001;SDS011;22070;50.922;5.430;2022-12-16T14:07:21;138.75;;;43.05;;
36001;SDS011;22070;50.922;5.430;2022-12-16T14:19:22;131.60;;;41.05;;
36001;SDS011;22070;50.922;5.430;2022-12-16T14:25:21;116.47;;;38.97;;
36001;SDS011;22070;50.922;5.430;2022-12-16T14:28:18;130.35;;;39.97;;
36001;SDS011;22070;50.922;5.430;2022-12-16T14:31:25;122.10;;;38.17;;
36001;SDS011;22070;50.922;5.430;2022-12-16T14:34:24;126.43;;;38.20;;
36001;SDS011;22070;50.922;5.430;2022-12-16T14:37:14;118.13;;;36.85;;
36001;SDS011;22070;50.922;5.430;2022-12-16T14:40:00;111.68;;;37.22;;
36001;SDS011;22070;50.922;5.430;2022-12-16T14:43:01;125.18;;;37.75;;
36001;SDS011;22070;50.922;5.430;2022-12-16T14:45:49;128.15;;;38.13;;
36001;SDS011;22070;50.922;5.430;2022-12-16T14:48:34;118.32;;;37.45;;
36001;SDS011;22070;50.922;5.430;2022-12-16T14:51:25;117.03;;;36.50;;
36001;SDS011;22070;50.922;5.430;2022-12-16T14:57:10;109.30;;;35.35;;
36001;SDS011;22070;50.922;5.430;2022-12-16T15:00:01;111.72;;;38.05;;
36001;SDS011;22070;50.922;5.430;2022-12-16T15:02:55;99.70;;;34.67;;
36001;SDS011;22070;50.922;5.430;2022-12-16T15:05:54;104.00;;;33.13;;
36001;SDS011;22070;50.922;5.430;2022-12-16T15:08:47;112.57;;;34.78;;
36001;SDS011;22070;50.922;5.430;2022-12-16T15:11:34;105.60;;;36.67;;
36001;SDS011;22070;50.922;5.430;2022-12-16T15:14:22;104.15;;;35.40;;
36001;SDS011;22070;50.922;5.430;2022-12-16T15:17:41;94.03;;;33.88;;
36001;SDS011;22070;50.922;5.430;2022-12-16T15:20:30;108.18;;;37.42;;
36001;SDS011;22070;50.922;5.430;2022-12-16T15:26:08;102.25;;;35.47;;
36001;SDS011;22070;50.922;5.430;2022-12-16T15:29:03;111.80;;;36.33;;
36001;SDS011;22070;50.922;5.430;2022-12-16T15:31:47;115.15;;;34.05;;
36001;SDS011;22070;50.922;5.430;2022-12-16T15:34:48;111.93;;;35.03;;
36001;SDS011;22070;50.922;5.430;2022-12-16T15:37:36;103.00;;;34.47;;
36001;SDS011;22070;50.922;5.430;2022-12-16T15:40:23;97.30;;;33.13;;
36001;SDS011;22070;50.922;5.430;2022-12-16T15:43:24;99.60;;;34.10;;
36001;SDS011;22070;50.922;5.430;2022-12-16T15:46:21;107.35;;;35.13;;
36001;SDS011;22070;50.922;5.430;2022-12-16T15:49:40;94.57;;;33.90;;
36001;SDS011;22070;50.922;5.430;2022-12-16T15:52:20;103.43;;;34.15;;
36001;SDS011;22070;50.922;5.430;2022-12-16T16:01:22;95.32;;;32.85;;
36001;SDS011;22070;50.922;5.430;2022-12-16T16:07:14;113.85;;;36.90;;
36001;SDS011;22070;50.922;5.430;2022-12-16T16:10:13;104.72;;;37.25;;
36001;SDS011;22070;50.922;5.430;2022-12-16T16:15:43;107.05;;;36.58;;
36001;SDS011;22070;50.922;5.430;2022-12-16T16:18:28;107.43;;;37.85;;
36001;SDS011;22070;50.922;5.430;2022-12-16T16:21:12;105.03;;;39.17;;
36001;SDS011;22070;50.922;5.430;2022-12-16T16:23:56;104.68;;;35.72;;
36001;SDS011;22070;50.922;5.430;2022-12-16T16:26:40;95.30;;;36.17;;
36001;SDS011;22070;50.922;5.430;2022-12-16T16:29:24;97.68;;;36.50;;
36001;SDS011;22070;50.922;5.430;2022-12-16T16:32:08;101.90;;;35.92;;
36001;SDS011;22070;50.922;5.430;2022-12-16T16:34:53;99.43;;;35.63;;
36001;SDS011;22070;50.922;5.430;2022-12-16T16:37:37;90.10;;;35.03;;
36001;SDS011;22070;50.922;5.430;2022-12-16T16:40:29;96.10;;;34.15;;
36001;SDS011;22070;50.922;5.430;2022-12-16T16:43:21;101.78;;;32.67;;
36001;SDS011;22070;50.922;5.430;2022-12-16T16:49:11;90.45;;;32.85;;
36001;SDS011;22070;50.922;5.430;2022-12-16T16:52:01;86.45;;;31.52;;
36001;SDS011;22070;50.922;5.430;2022-12-16T16:54:45;91.20;;;32.55;;
36001;SDS011;22070;50.922;5.430;2022-12-16T16:57:31;95.45;;;32.58;;
36001;SDS011;22070;50.922;5.430;2022-12-16T17:00:19;91.30;;;32.42;;
36001;SDS011;22070;50.922;5.430;2022-12-16T17:03:03;96.53;;;32.53;;
36001;SDS011;22070;50.922;5.430;2022-12-16T17:05:50;90.63;;;32.08;;
36001;SDS011;22070;50.922;5.430;2022-12-16T17:08:34;94.03;;;32.20;;
36001;SDS011;22070;50.922;5.430;2022-12-16T17:11:19;89.82;;;32.17;;
36001;SDS011;22070;50.922;5.430;2022-12-16T17:14:04;95.25;;;32.63;;
36001;SDS011;22070;50.922;5.430;2022-12-16T17:16:52;80.00;;;29.02;;
36001;SDS011;22070;50.922;5.430;2022-12-16T17:19:36;90.30;;;31.65;;
36001;SDS011;22070;50.922;5.430;2022-12-16T17:22:20;91.57;;;31.17;;
36001;SDS011;22070;50.922;5.430;2022-12-16T17:25:05;86.40;;;30.73;;
36001;SDS011;22070;50.922;5.430;2022-12-16T17:27:49;84.82;;;29.90;;
36001;SDS011;22070;50.922;5.430;2022-12-16T17:30:34;84.63;;;31.13;;
36001;SDS011;22070;50.922;5.430;2022-12-16T17:33:18;91.13;;;30.48;;
36001;SDS011;22070;50.922;5.430;2022-12-16T17:36:02;86.03;;;29.80;;
36001;SDS011;22070;50.922;5.430;2022-12-16T17:38:46;85.57;;;30.63;;
36001;SDS011;22070;50.922;5.430;2022-12-16T17:41:31;85.22;;;30.52;;
36001;SDS011;22070;50.922;5.430;2022-12-16T17:44:16;90.47;;;30.77;;
36001;SDS011;22070;50.922;5.430;2022-12-16T17:47:00;89.15;;;30.30;;
36001;SDS011;22070;50.922;5.430;2022-12-16T17:49:45;82.20;;;29.60;;
36001;SDS011;22070;50.922;5.430;2022-12-16T17:52:29;92.05;;;31.35;;
36001;SDS011;22070;50.922;5.430;2022-12-16T17:55:14;80.53;;;31.30;;
36001;SDS011;22070;50.922;5.430;2022-12-16T17:57:58;94.47;;;31.88;;
36001;SDS011;22070;50.922;5.430;2022-12-16T18:00:43;89.95;;;29.95;;
36001;SDS011;22070;50.922;5.430;2022-12-16T18:03:27;87.25;;;31.00;;
36001;SDS011;22070;50.922;5.430;2022-12-16T18:06:11;88.75;;;31.52;;
36001;SDS011;22070;50.922;5.430;2022-12-16T18:08:55;84.93;;;32.03;;
36001;SDS011;22070;50.922;5.430;2022-12-16T18:11:40;83.65;;;30.92;;
36001;SDS011;22070;50.922;5.430;2022-12-16T18:14:24;83.35;;;30.50;;
36001;SDS011;22070;50.922;5.430;2022-12-16T18:17:08;75.72;;;29.42;;
36001;SDS011;22070;50.922;5.430;2022-12-16T18:19:52;77.22;;;28.65;;
36001;SDS011;22070;50.922;5.430;2022-12-16T18:22:36;80.20;;;30.27;;
36001;SDS011;22070;50.922;5.430;2022-12-16T18:25:20;80.47;;;30.60;;
36001;SDS011;22070;50.922;5.430;2022-12-16T18:28:04;91.50;;;32.67;;